Slayton, Minnesota
Current Conditions -  °F | °C
As of 4:14 PM on Friday 24 Oct 2014 (Local Time) from KDVP Reporting Station
Clear Clear  
Wind Chill: 73°   Ceiling: Unl
Heat Index: 73°   Visibility: 10mi
Dew Point: 33°   Wind: 14mph
Humidity: 23%   Direction: 290°WNW
Pressure: 29.9"   Gusts: NA
Location:  43.99°N, 95.76°W
Report Text: KDVP 242114Z AUTO 29012KT 10SM CLR 23/01 A2990 RMK AO2 T02300005
Loading
Personal Weather Stations






























Interactive Weather Map
Tropical Storm Tracking
New forecast layout! Learn more

10-Day Weather Forecast

Advertisements
Track Severe Weather on mobile